Time;durP1;ratioP1;P1;durP2;ratioP2;P2;SDS_P1;SDS_P2;PMS_P1;PMS_P2;Temp;Humidity;BMP_temperature;BMP_pressure;BME280_temperature;BME280_humidity;BME280_pressure;Samples;Min_cycle;Max_cycle;Signal;HPM_P1;HPM_P2
2023/12/22 00:02:10;;;;;;;2.50;2.30;;;;;;;;;;6288373;22;20397;-90
2023/12/22 00:04:36;;;;;;;3.43;1.47;;;;;;;;;;6291974;22;20964;-90
2023/12/22 00:07:02;;;;;;;7.73;1.43;;;;;;;;;;6291846;22;20399;-91
2023/12/22 00:09:28;;;;;;;1.80;1.40;;;;;;;;;;6289825;22;20694;-92
2023/12/22 00:11:54;;;;;;;3.30;1.50;;;;;;;;;;6291414;22;20383;-91
2023/12/22 00:14:20;;;;;;;4.30;1.63;;;;;;;;;;6314500;22;20423;-90
2023/12/22 00:16:46;;;;;;;1.70;1.33;;;;;;;;;;6287708;22;20375;-91
2023/12/22 00:19:12;;;;;;;6.87;1.73;;;;;;;;;;6288919;22;21004;-91
2023/12/22 00:21:38;;;;;;;3.70;1.30;;;;;;;;;;6293425;22;20458;-91
2023/12/22 00:24:04;;;;;;;4.07;1.67;;;;;;;;;;6250423;22;20384;-92
2023/12/22 00:26:30;;;;;;;1.23;1.13;;;;;;;;;;6272671;22;20464;-91
2023/12/22 00:28:56;;;;;;;2.40;1.17;;;;;;;;;;6276749;22;20374;-91
2023/12/22 00:31:22;;;;;;;2.07;1.43;;;;;;;;;;6273978;22;20418;-90
2023/12/22 00:33:49;;;;;;;2.57;1.30;;;;;;;;;;6272773;22;20390;-92
2023/12/22 00:36:20;;;;;;;3.03;1.70;;;;;;;;;;6272373;22;20382;-92
2023/12/22 00:38:46;;;;;;;2.07;1.37;;;;;;;;;;6272522;22;20724;-92
2023/12/22 00:41:13;;;;;;;5.00;2.40;;;;;;;;;;6272941;22;20773;-92
2023/12/22 00:43:39;;;;;;;3.53;1.10;;;;;;;;;;6273043;22;20445;-91
2023/12/22 00:46:05;;;;;;;4.30;1.27;;;;;;;;;;6271070;22;20382;-91
2023/12/22 00:48:31;;;;;;;1.67;1.57;;;;;;;;;;6247158;23;20875;-93
2023/12/22 00:50:57;;;;;;;2.70;1.40;;;;;;;;;;6272479;22;20390;-91
2023/12/22 00:53:23;;;;;;;0.80;0.80;;;;;;;;;;6274224;22;20397;-91
2023/12/22 00:55:49;;;;;;;6.70;1.37;;;;;;;;;;6301833;22;20372;-91
2023/12/22 00:58:15;;;;;;;1.03;0.90;;;;;;;;;;6338015;22;20395;-92
2023/12/22 01:00:41;;;;;;;2.00;1.20;;;;;;;;;;6252365;22;20451;-91
2023/12/22 01:03:07;;;;;;;1.53;1.30;;;;;;;;;;6222809;22;20503;-91
2023/12/22 01:05:33;;;;;;;2.60;1.23;;;;;;;;;;6225123;22;20397;-90
2023/12/22 01:07:59;;;;;;;6.13;1.70;;;;;;;;;;6225319;22;20382;-92
2023/12/22 01:10:25;;;;;;;4.20;1.93;;;;;;;;;;6229292;22;20378;-91
2023/12/22 01:12:51;;;;;;;3.20;1.70;;;;;;;;;;6229314;22;20861;-91
2023/12/22 01:15:17;;;;;;;8.17;1.67;;;;;;;;;;6229682;22;20382;-91
2023/12/22 01:17:42;;;;;;;1.60;1.20;;;;;;;;;;6228839;22;20419;-91
2023/12/22 01:20:09;;;;;;;3.63;1.17;;;;;;;;;;6228469;22;20901;-90
2023/12/22 01:22:38;;;;;;;7.87;2.27;;;;;;;;;;6228941;22;21189;-91
2023/12/22 01:25:04;;;;;;;4.17;1.40;;;;;;;;;;6230768;22;20739;-91
2023/12/22 01:27:30;;;;;;;3.23;1.47;;;;;;;;;;6228925;22;20429;-90
2023/12/22 01:29:56;;;;;;;2.47;2.00;;;;;;;;;;6258231;22;20463;-90
2023/12/22 01:32:22;;;;;;;1.60;1.50;;;;;;;;;;6279388;22;20383;-90
2023/12/22 01:34:48;;;;;;;2.07;1.23;;;;;;;;;;6295744;22;20423;-91
2023/12/22 01:37:14;;;;;;;10.90;1.30;;;;;;;;;;6318921;22;20372;-90
2023/12/22 01:39:40;;;;;;;2.30;1.30;;;;;;;;;;6291696;22;20419;-90
2023/12/22 01:42:06;;;;;;;2.53;1.23;;;;;;;;;;6292009;22;20364;-91
2023/12/22 01:44:33;;;;;;;2.00;1.27;;;;;;;;;;6316447;22;20861;-91
2023/12/22 01:46:59;;;;;;;3.87;1.00;;;;;;;;;;6316934;22;20356;-90
2023/12/22 01:49:25;;;;;;;3.73;1.47;;;;;;;;;;6290530;22;20382;-90
2023/12/22 01:51:51;;;;;;;1.67;1.17;;;;;;;;;;6293176;22;20364;-89
2023/12/22 01:54:18;;;;;;;4.13;0.90;;;;;;;;;;6291391;22;20394;-90
2023/12/22 01:56:44;;;;;;;3.00;0.83;;;;;;;;;;6293363;22;20433;-91
2023/12/22 01:59:10;;;;;;;1.13;0.90;;;;;;;;;;6289592;22;20430;-89
2023/12/22 02:01:37;;;;;;;2.10;0.77;;;;;;;;;;6321561;22;20435;-91
2023/12/22 02:04:03;;;;;;;3.57;1.00;;;;;;;;;;6292949;22;20435;-91
2023/12/22 02:06:30;;;;;;;2.30;0.80;;;;;;;;;;6291126;22;20702;-90
2023/12/22 02:08:56;;;;;;;1.30;1.20;;;;;;;;;;6289549;22;20378;-89
2023/12/22 02:11:22;;;;;;;4.20;1.60;;;;;;;;;;6290116;22;20380;-91
2023/12/22 02:13:48;;;;;;;0.70;0.70;;;;;;;;;;6291865;22;20378;-91
2023/12/22 02:16:26;;;;;;;2.00;0.97;;;;;;;;;;6316380;22;20815;-90
2023/12/22 02:18:53;;;;;;;0.80;0.73;;;;;;;;;;6289402;22;20371;-92
2023/12/22 02:21:19;;;;;;;1.00;0.90;;;;;;;;;;6287432;22;20380;-91
2023/12/22 02:23:47;;;;;;;3.43;0.80;;;;;;;;;;6288724;22;20477;-89
2023/12/22 02:26:16;;;;;;;1.17;0.80;;;;;;;;;;6286095;22;20398;-91
2023/12/22 02:28:45;;;;;;;0.60;0.60;;;;;;;;;;6289006;22;20375;-90
2023/12/22 02:31:17;;;;;;;0.90;0.90;;;;;;;;;;6311953;22;20399;-92
2023/12/22 02:33:43;;;;;;;3.33;1.10;;;;;;;;;;6290472;22;20380;-91
2023/12/22 02:36:09;;;;;;;3.10;0.83;;;;;;;;;;6285799;22;20385;-90
2023/12/22 02:38:35;;;;;;;2.90;1.40;;;;;;;;;;6286270;22;20375;-91
2023/12/22 02:41:01;;;;;;;1.53;1.20;;;;;;;;;;6287943;22;20418;-89
2023/12/22 02:43:28;;;;;;;1.10;0.87;;;;;;;;;;6288953;22;20375;-89
2023/12/22 02:45:54;;;;;;;1.33;1.00;;;;;;;;;;6289949;22;20906;-89
2023/12/22 02:48:19;;;;;;;2.53;1.40;;;;;;;;;;6288891;22;20386;-91
2023/12/22 02:50:45;;;;;;;1.80;0.77;;;;;;;;;;6288873;22;20383;-91
2023/12/22 02:53:11;;;;;;;2.80;1.53;;;;;;;;;;6290129;22;20869;-90
2023/12/22 02:55:37;;;;;;;1.70;0.90;;;;;;;;;;6291757;22;20607;-89
2023/12/22 02:58:04;;;;;;;0.80;0.80;;;;;;;;;;6290092;22;20395;-91
2023/12/22 03:00:30;;;;;;;3.10;1.30;;;;;;;;;;6292470;22;20422;-90
2023/12/22 03:02:56;;;;;;;9.33;1.20;;;;;;;;;;6290411;22;20380;-90
2023/12/22 03:05:21;;;;;;;2.00;1.13;;;;;;;;;;6294778;22;20602;-91
2023/12/22 03:07:47;;;;;;;4.10;1.17;;;;;;;;;;6288828;22;20375;-90
2023/12/22 03:10:13;;;;;;;1.80;0.90;;;;;;;;;;6289478;22;20411;-89
2023/12/22 03:12:39;;;;;;;1.10;1.00;;;;;;;;;;6289983;22;20391;-90
2023/12/22 03:15:06;;;;;;;3.83;1.27;;;;;;;;;;6291326;22;20725;-90
2023/12/22 03:17:32;;;;;;;2.90;1.00;;;;;;;;;;6290322;22;20379;-91
2023/12/22 03:19:58;;;;;;;3.60;1.07;;;;;;;;;;6317520;22;20422;-91
2023/12/22 03:22:24;;;;;;;3.33;1.20;;;;;;;;;;6290735;22;20375;-90
2023/12/22 03:24:50;;;;;;;0.80;0.70;;;;;;;;;;6292223;22;20388;-88
2023/12/22 03:27:17;;;;;;;2.73;1.40;;;;;;;;;;6288559;22;20367;-89
2023/12/22 03:29:45;;;;;;;2.70;1.90;;;;;;;;;;6289246;22;20657;-89
2023/12/22 03:32:11;;;;;;;5.73;1.07;;;;;;;;;;6291151;22;21126;-90
2023/12/22 03:34:37;;;;;;;1.80;0.87;;;;;;;;;;6288562;22;20842;-90
2023/12/22 03:37:03;;;;;;;3.13;1.30;;;;;;;;;;6317694;22;20375;-90
2023/12/22 03:39:29;;;;;;;3.57;0.90;;;;;;;;;;6285274;22;20419;-89
2023/12/22 03:41:55;;;;;;;3.53;1.30;;;;;;;;;;6285910;22;20387;-89
2023/12/22 03:44:21;;;;;;;3.03;1.10;;;;;;;;;;6287955;22;20484;-90
2023/12/22 03:46:47;;;;;;;2.63;1.13;;;;;;;;;;6316008;22;20371;-89
2023/12/22 03:49:13;;;;;;;4.53;1.77;;;;;;;;;;6289484;22;20796;-91
2023/12/22 03:51:41;;;;;;;1.90;1.10;;;;;;;;;;6285833;22;20370;-90
2023/12/22 03:54:07;;;;;;;2.10;1.33;;;;;;;;;;6287673;22;20432;-90
2023/12/22 03:56:33;;;;;;;0.93;0.87;;;;;;;;;;6293287;22;20458;-93
2023/12/22 03:58:59;;;;;;;2.50;1.20;;;;;;;;;;6289355;22;20407;-92
2023/12/22 04:01:25;;;;;;;8.83;1.43;;;;;;;;;;6294558;22;20378;-92
2023/12/22 04:03:54;;;;;;;3.97;1.70;;;;;;;;;;6290124;22;20399;-92
2023/12/22 04:06:26;;;;;;;10.60;1.90;;;;;;;;;;6254678;22;20381;-91
2023/12/22 04:08:52;;;;;;;2.53;1.67;;;;;;;;;;6228598;22;20464;-91
2023/12/22 04:11:18;;;;;;;3.47;1.20;;;;;;;;;;6228481;22;20380;-92
2023/12/22 04:13:44;;;;;;;3.47;1.80;;;;;;;;;;6230317;22;20377;-91
2023/12/22 04:16:13;;;;;;;5.43;1.03;;;;;;;;;;6229718;22;20856;-92
2023/12/22 04:18:39;;;;;;;8.23;1.40;;;;;;;;;;6228788;22;20502;-91
2023/12/22 04:21:05;;;;;;;1.90;1.13;;;;;;;;;;6229088;22;20904;-91
2023/12/22 04:23:31;;;;;;;1.40;1.30;;;;;;;;;;6227322;22;20483;-92
2023/12/22 04:25:57;;;;;;;2.93;1.30;;;;;;;;;;6229188;22;20383;-93
2023/12/22 04:28:23;;;;;;;9.33;1.57;;;;;;;;;;6230988;22;20388;-92
2023/12/22 04:30:50;;;;;;;3.63;1.43;;;;;;;;;;6230327;22;20385;-93
2023/12/22 04:33:16;;;;;;;3.40;1.50;;;;;;;;;;6232012;22;20381;-91
2023/12/22 04:35:42;;;;;;;5.60;1.57;;;;;;;;;;6228239;22;20384;-92
2023/12/22 04:38:08;;;;;;;3.80;1.50;;;;;;;;;;6294613;22;20383;-91
2023/12/22 04:40:34;;;;;;;3.30;1.40;;;;;;;;;;6305612;22;20419;-91
2023/12/22 04:43:00;;;;;;;1.67;1.23;;;;;;;;;;6302052;22;20374;-91
2023/12/22 04:45:26;;;;;;;3.17;1.70;;;;;;;;;;6293569;22;20444;-92
2023/12/22 04:47:52;;;;;;;5.33;1.23;;;;;;;;;;6292404;22;20383;-91
2023/12/22 04:50:21;;;;;;;5.00;1.77;;;;;;;;;;6292234;22;20890;-92
2023/12/22 04:52:47;;;;;;;1.13;1.00;;;;;;;;;;6295902;22;20386;-91
2023/12/22 04:55:13;;;;;;;1.23;0.73;;;;;;;;;;6295551;22;20380;-91
2023/12/22 04:57:39;;;;;;;1.20;1.00;;;;;;;;;;6295065;22;20376;-92
2023/12/22 05:00:05;;;;;;;4.33;1.87;;;;;;;;;;6319609;22;20405;-91
2023/12/22 05:02:32;;;;;;;1.97;1.03;;;;;;;;;;6295003;22;20382;-90
2023/12/22 05:04:58;;;;;;;1.63;1.40;;;;;;;;;;6290404;22;20388;-91
2023/12/22 05:07:24;;;;;;;1.57;0.63;;;;;;;;;;6292447;22;20384;-90
2023/12/22 05:09:51;;;;;;;6.77;1.43;;;;;;;;;;6291211;22;20422;-91
2023/12/22 05:12:17;;;;;;;1.43;0.80;;;;;;;;;;6295543;22;20487;-91
2023/12/22 05:14:44;;;;;;;3.53;1.47;;;;;;;;;;6292687;22;20379;-90
2023/12/22 05:17:10;;;;;;;11.03;1.50;;;;;;;;;;6323454;22;20686;-91
2023/12/22 05:19:37;;;;;;;6.13;1.67;;;;;;;;;;6292146;22;20415;-92
2023/12/22 05:22:04;;;;;;;3.83;1.17;;;;;;;;;;6318142;22;20379;-91
2023/12/22 05:24:30;;;;;;;2.57;1.10;;;;;;;;;;6291868;22;20379;-91
2023/12/22 05:26:55;;;;;;;5.27;2.00;;;;;;;;;;6292379;22;20445;-91
2023/12/22 05:29:21;;;;;;;5.80;1.33;;;;;;;;;;6287182;22;20479;-91
2023/12/22 05:31:47;;;;;;;7.40;1.20;;;;;;;;;;6289591;22;20372;-91
2023/12/22 05:34:13;;;;;;;4.73;1.97;;;;;;;;;;6289940;22;20459;-92
2023/12/22 05:36:39;;;;;;;3.23;1.17;;;;;;;;;;6288802;22;20376;-90
2023/12/22 05:39:09;;;;;;;2.93;2.17;;;;;;;;;;6291609;22;20392;-91
2023/12/22 05:41:37;;;;;;;3.00;1.70;;;;;;;;;;6288972;22;20978;-91
2023/12/22 05:44:03;;;;;;;4.87;2.10;;;;;;;;;;6291353;22;20386;-89
2023/12/22 05:46:29;;;;;;;4.67;2.00;;;;;;;;;;6289123;22;20389;-91
2023/12/22 05:48:59;;;;;;;1.90;0.93;;;;;;;;;;6295587;22;20356;-91
2023/12/22 05:51:25;;;;;;;5.50;1.70;;;;;;;;;;6291084;22;20363;-90
2023/12/22 05:53:53;;;;;;;4.63;1.60;;;;;;;;;;6291026;22;20862;-90
2023/12/22 05:56:22;;;;;;;4.40;3.60;;;;;;;;;;6289020;22;20390;-91
2023/12/22 05:58:49;;;;;;;3.27;1.40;;;;;;;;;;6288478;22;20407;-91
2023/12/22 06:01:16;;;;;;;8.07;1.70;;;;;;;;;;6292766;22;20419;-91
2023/12/22 06:03:42;;;;;;;3.70;1.77;;;;;;;;;;6293135;22;20762;-91
2023/12/22 06:06:08;;;;;;;8.90;2.27;;;;;;;;;;6291478;22;20450;-90
2023/12/22 06:08:34;;;;;;;3.43;1.50;;;;;;;;;;6292070;22;20381;-90
2023/12/22 06:11:00;;;;;;;1.03;0.90;;;;;;;;;;6289723;22;20391;-90
2023/12/22 06:13:26;;;;;;;2.90;1.50;;;;;;;;;;6293495;22;20387;-90
2023/12/22 06:15:52;;;;;;;2.27;1.37;;;;;;;;;;6291368;22;20371;-91
2023/12/22 06:18:18;;;;;;;7.50;2.47;;;;;;;;;;6294602;22;20387;-90
2023/12/22 06:20:44;;;;;;;3.27;2.13;;;;;;;;;;6290999;22;20785;-90
2023/12/22 06:23:10;;;;;;;2.57;1.47;;;;;;;;;;6297493;22;20386;-91
2023/12/22 06:25:36;;;;;;;3.77;1.20;;;;;;;;;;6290309;22;20391;-90
2023/12/22 06:28:03;;;;;;;4.23;1.73;;;;;;;;;;6291513;22;20448;-90
2023/12/22 06:30:30;;;;;;;6.10;1.63;;;;;;;;;;6285995;22;20415;-90
2023/12/22 06:32:56;;;;;;;1.43;1.03;;;;;;;;;;6291481;22;20372;-90
2023/12/22 06:35:25;;;;;;;2.17;1.37;;;;;;;;;;6316843;22;20360;-90
2023/12/22 06:37:51;;;;;;;4.03;1.43;;;;;;;;;;6293515;22;20398;-90
2023/12/22 06:40:18;;;;;;;5.90;1.63;;;;;;;;;;6314697;22;20415;-91
2023/12/22 06:42:45;;;;;;;7.30;1.70;;;;;;;;;;6294010;22;20431;-91
2023/12/22 06:45:11;;;;;;;6.20;1.57;;;;;;;;;;6289077;22;20433;-91
2023/12/22 06:47:37;;;;;;;2.80;1.50;;;;;;;;;;6293078;22;20367;-90
2023/12/22 06:50:03;;;;;;;1.37;1.20;;;;;;;;;;6292308;22;20442;-89
2023/12/22 06:52:30;;;;;;;1.63;1.03;;;;;;;;;;6296855;22;20383;-91
2023/12/22 06:54:56;;;;;;;2.97;1.17;;;;;;;;;;6297942;22;20398;-91
2023/12/22 06:57:22;;;;;;;7.87;1.90;;;;;;;;;;6291636;22;20719;-91
2023/12/22 06:59:49;;;;;;;12.23;1.70;;;;;;;;;;6291627;22;21009;-92
2023/12/22 07:02:15;;;;;;;2.13;1.50;;;;;;;;;;6291823;22;20383;-91
2023/12/22 07:04:41;;;;;;;3.93;0.90;;;;;;;;;;6294891;22;20375;-92
2023/12/22 07:07:07;;;;;;;7.30;1.43;;;;;;;;;;6293718;22;20376;-91
2023/12/22 07:09:33;;;;;;;2.20;1.30;;;;;;;;;;6292498;22;20379;-91
2023/12/22 07:11:59;;;;;;;4.23;1.47;;;;;;;;;;6291352;22;20421;-91
2023/12/22 07:14:25;;;;;;;9.13;1.40;;;;;;;;;;6321124;22;20368;-92
2023/12/22 07:16:51;;;;;;;2.17;1.23;;;;;;;;;;6291465;22;20869;-93
2023/12/22 07:19:17;;;;;;;2.53;1.23;;;;;;;;;;6291239;22;20441;-91
2023/12/22 07:21:43;;;;;;;6.77;2.40;;;;;;;;;;6290657;22;20371;-89
2023/12/22 07:24:09;;;;;;;8.07;2.27;;;;;;;;;;6295583;22;20442;-91
2023/12/22 07:26:35;;;;;;;4.93;1.23;;;;;;;;;;6288559;22;20378;-91
2023/12/22 07:29:01;;;;;;;3.33;1.60;;;;;;;;;;6286059;22;20853;-90
2023/12/22 07:31:30;;;;;;;1.70;1.47;;;;;;;;;;6289587;22;20376;-91
2023/12/22 07:33:59;;;;;;;3.43;1.23;;;;;;;;;;6304267;22;20392;-89
2023/12/22 07:36:25;;;;;;;2.20;2.00;;;;;;;;;;6291480;22;20459;-89
2023/12/22 07:38:51;;;;;;;2.50;1.23;;;;;;;;;;6288826;22;20728;-91
2023/12/22 07:41:17;;;;;;;2.50;1.50;;;;;;;;;;6294229;22;20529;-90
2023/12/22 07:43:44;;;;;;;4.47;1.40;;;;;;;;;;6319149;22;20363;-91
2023/12/22 07:46:16;;;;;;;11.20;2.30;;;;;;;;;;6293134;22;20376;-91
2023/12/22 07:48:44;;;;;;;3.20;1.27;;;;;;;;;;6294084;22;20440;-91
2023/12/22 07:51:10;;;;;;;2.70;1.23;;;;;;;;;;6294809;22;20996;-91
2023/12/22 07:53:36;;;;;;;3.23;1.23;;;;;;;;;;6294594;22;20384;-91
2023/12/22 07:56:05;;;;;;;8.63;1.70;;;;;;;;;;6294701;22;20366;-92
2023/12/22 07:58:31;;;;;;;4.63;1.43;;;;;;;;;;6296000;22;20422;-91
2023/12/22 08:00:57;;;;;;;0.97;0.90;;;;;;;;;;6293409;22;20544;-92
2023/12/22 08:03:23;;;;;;;2.83;1.37;;;;;;;;;;6293601;22;20379;-91
2023/12/22 08:05:49;;;;;;;4.63;1.70;;;;;;;;;;6293319;22;20376;-90
2023/12/22 08:08:15;;;;;;;2.50;1.30;;;;;;;;;;6292212;22;20757;-90
2023/12/22 08:10:41;;;;;;;2.27;1.00;;;;;;;;;;6292767;22;20375;-90
2023/12/22 08:13:07;;;;;;;2.30;1.20;;;;;;;;;;6291766;22;20379;-90
2023/12/22 08:15:33;;;;;;;1.37;1.00;;;;;;;;;;6293776;22;20375;-91
2023/12/22 08:17:59;;;;;;;1.40;1.30;;;;;;;;;;6294076;22;20376;-91
2023/12/22 08:20:28;;;;;;;7.90;2.63;;;;;;;;;;6291707;22;20419;-90
2023/12/22 08:22:56;;;;;;;1.50;0.87;;;;;;;;;;6292703;22;20383;-88
2023/12/22 08:25:21;;;;;;;4.60;1.43;;;;;;;;;;6289419;22;20391;-88
2023/12/22 08:27:50;;;;;;;8.57;1.37;;;;;;;;;;6293151;22;20410;-90
2023/12/22 08:30:16;;;;;;;1.73;1.30;;;;;;;;;;6292575;22;20371;-89
2023/12/22 08:32:42;;;;;;;8.73;1.67;;;;;;;;;;6316475;22;20424;-89
2023/12/22 08:35:08;;;;;;;7.20;2.63;;;;;;;;;;6292147;22;20380;-85
2023/12/22 08:37:34;;;;;;;6.70;1.90;;;;;;;;;;6290375;22;20376;-85
2023/12/22 08:40:00;;;;;;;10.63;2.63;;;;;;;;;;6289463;22;20445;-85
2023/12/22 08:42:26;;;;;;;3.33;2.03;;;;;;;;;;6288728;22;20371;-85
2023/12/22 08:44:52;;;;;;;4.47;1.47;;;;;;;;;;6289070;22;21145;-85
2023/12/22 08:47:18;;;;;;;4.20;1.40;;;;;;;;;;6288726;22;20440;-86
2023/12/22 08:49:44;;;;;;;4.40;2.27;;;;;;;;;;6291269;22;20379;-86
2023/12/22 08:52:10;;;;;;;15.73;2.10;;;;;;;;;;6288496;22;20376;-85
2023/12/22 08:54:36;;;;;;;4.30;2.10;;;;;;;;;;6317620;22;20367;-85
2023/12/22 08:57:02;;;;;;;7.23;2.60;;;;;;;;;;6290351;22;20375;-87
2023/12/22 08:59:28;;;;;;;8.73;3.23;;;;;;;;;;6295982;22;20418;-85
2023/12/22 09:01:55;;;;;;;7.37;2.77;;;;;;;;;;6291357;22;20368;-86
2023/12/22 09:04:26;;;;;;;6.87;1.70;;;;;;;;;;6292616;22;20720;-86
2023/12/22 09:06:52;;;;;;;5.40;1.73;;;;;;;;;;6297663;22;20378;-85
2023/12/22 09:09:18;;;;;;;8.17;2.23;;;;;;;;;;6291621;22;20384;-86
2023/12/22 09:11:44;;;;;;;8.60;1.73;;;;;;;;;;6290380;22;20390;-85
2023/12/22 09:14:10;;;;;;;4.27;2.27;;;;;;;;;;6292673;22;20380;-85
2023/12/22 09:16:36;;;;;;;4.40;2.33;;;;;;;;;;6291306;22;20412;-84
2023/12/22 09:19:03;;;;;;;5.20;1.60;;;;;;;;;;6290545;22;20372;-85
2023/12/22 09:21:29;;;;;;;5.50;1.93;;;;;;;;;;6292903;22;20368;-85
2023/12/22 09:23:55;;;;;;;9.27;2.50;;;;;;;;;;6291025;22;20376;-85
2023/12/22 09:26:21;;;;;;;5.60;1.87;;;;;;;;;;6292700;22;20364;-86
2023/12/22 09:28:47;;;;;;;2.07;1.50;;;;;;;;;;6290255;22;20778;-86
2023/12/22 09:31:13;;;;;;;5.60;1.83;;;;;;;;;;6313759;22;20391;-85
2023/12/22 09:33:40;;;;;;;6.80;2.40;;;;;;;;;;6283331;22;20373;-85
2023/12/22 09:36:06;;;;;;;8.07;2.73;;;;;;;;;;6259396;22;20372;-85
2023/12/22 09:38:32;;;;;;;6.90;2.20;;;;;;;;;;6256515;22;20380;-85
2023/12/22 09:40:58;;;;;;;6.83;1.97;;;;;;;;;;6258387;22;20486;-86
2023/12/22 09:43:27;;;;;;;7.30;1.47;;;;;;;;;;6260938;22;20377;-87
2023/12/22 09:45:53;;;;;;;8.10;2.30;;;;;;;;;;6259435;22;20383;-86
2023/12/22 09:48:27;;;;;;;6.67;1.57;;;;;;;;;;6260879;22;20451;-86
2023/12/22 09:50:53;;;;;;;11.83;2.20;;;;;;;;;;6260464;22;20384;-86
2023/12/22 09:53:19;;;;;;;22.17;3.97;;;;;;;;;;6287749;22;20427;-85
2023/12/22 09:55:47;;;;;;;4.33;1.53;;;;;;;;;;6258354;22;20411;-85
2023/12/22 09:58:16;;;;;;;11.50;2.23;;;;;;;;;;6284550;22;20399;-85
2023/12/22 10:00:42;;;;;;;3.30;2.00;;;;;;;;;;6282417;22;20903;-89
2023/12/22 10:03:08;;;;;;;4.03;1.73;;;;;;;;;;6291106;22;20380;-88
2023/12/22 10:05:34;;;;;;;4.97;3.00;;;;;;;;;;6289172;22;20501;-87
2023/12/22 10:08:01;;;;;;;6.27;1.63;;;;;;;;;;6319492;22;20391;-86
2023/12/22 10:10:29;;;;;;;6.93;2.13;;;;;;;;;;6289808;22;20703;-86
2023/12/22 10:12:55;;;;;;;6.07;2.50;;;;;;;;;;6317328;22;20364;-86
2023/12/22 10:15:23;;;;;;;4.07;1.47;;;;;;;;;;6290241;22;20376;-86
2023/12/22 10:17:49;;;;;;;12.90;2.53;;;;;;;;;;6291547;22;20400;-86
2023/12/22 10:20:15;;;;;;;14.33;2.60;;;;;;;;;;6290536;22;20925;-86
2023/12/22 10:22:41;;;;;;;12.70;2.97;;;;;;;;;;6291735;22;20362;-89
2023/12/22 10:25:08;;;;;;;4.90;2.03;;;;;;;;;;6290209;22;20387;-86
2023/12/22 10:27:34;;;;;;;6.23;2.10;;;;;;;;;;6318222;22;20762;-86
2023/12/22 10:30:00;;;;;;;6.30;2.00;;;;;;;;;;6291145;22;20372;-87
2023/12/22 10:32:27;;;;;;;5.03;2.30;;;;;;;;;;6293447;22;20380;-87
2023/12/22 10:34:53;;;;;;;3.87;1.93;;;;;;;;;;6316046;22;20383;-87
2023/12/22 10:37:20;;;;;;;6.77;2.20;;;;;;;;;;6296890;22;20386;-87
2023/12/22 10:39:48;;;;;;;4.80;2.00;;;;;;;;;;6292235;22;20853;-88
2023/12/22 10:42:16;;;;;;;4.23;1.63;;;;;;;;;;6292877;22;20368;-87
2023/12/22 10:44:42;;;;;;;7.20;2.00;;;;;;;;;;6293457;22;20408;-86
2023/12/22 10:47:08;;;;;;;9.70;2.10;;;;;;;;;;6294748;22;20380;-89
2023/12/22 10:49:34;;;;;;;3.77;1.70;;;;;;;;;;6295612;22;20394;-88
2023/12/22 10:52:03;;;;;;;6.40;2.10;;;;;;;;;;6293937;22;20387;-86
2023/12/22 10:54:29;;;;;;;2.17;1.97;;;;;;;;;;6317011;22;20509;-86
2023/12/22 10:56:59;;;;;;;7.93;2.60;;;;;;;;;;6293535;22;20364;-85
2023/12/22 10:59:25;;;;;;;1.83;1.57;;;;;;;;;;6314404;22;20419;-85
2023/12/22 11:01:53;;;;;;;4.20;2.30;;;;;;;;;;6292215;22;20374;-85
2023/12/22 11:04:22;;;;;;;7.30;1.20;;;;;;;;;;6317371;22;20383;-86
2023/12/22 11:06:48;;;;;;;1.47;1.17;;;;;;;;;;6294345;22;20386;-86
2023/12/22 11:09:14;;;;;;;2.60;1.00;;;;;;;;;;6318622;22;21149;-87
2023/12/22 11:11:41;;;;;;;1.40;1.23;;;;;;;;;;6291723;22;20756;-85
2023/12/22 11:14:07;;;;;;;5.90;1.90;;;;;;;;;;6291262;22;20842;-87
2023/12/22 11:16:36;;;;;;;2.57;1.23;;;;;;;;;;6291411;22;20465;-85
2023/12/22 11:19:02;;;;;;;2.10;1.07;;;;;;;;;;6292763;22;20466;-85
2023/12/22 11:21:29;;;;;;;2.67;1.10;;;;;;;;;;6289995;22;20485;-87
2023/12/22 11:23:55;;;;;;;3.43;1.00;;;;;;;;;;6290074;22;20440;-88
2023/12/22 11:26:22;;;;;;;3.20;1.27;;;;;;;;;;6289270;22;20412;-91
2023/12/22 11:28:49;;;;;;;3.43;1.30;;;;;;;;;;6292939;22;20383;-91
2023/12/22 11:31:15;;;;;;;1.27;0.87;;;;;;;;;;6290737;22;20409;-91
2023/12/22 11:33:45;;;;;;;1.00;0.90;;;;;;;;;;6292464;22;20376;-93
2023/12/22 11:36:15;;;;;;;6.10;1.97;;;;;;;;;;6291266;22;20409;-91
2023/12/22 11:38:41;;;;;;;2.73;1.67;;;;;;;;;;6294365;22;20880;-91
2023/12/22 11:41:11;;;;;;;2.07;1.10;;;;;;;;;;6291082;22;20417;-91
2023/12/22 11:43:38;;;;;;;1.67;0.87;;;;;;;;;;6293294;22;20383;-90
2023/12/22 11:46:04;;;;;;;1.00;1.00;;;;;;;;;;6291155;22;20375;-88
2023/12/22 11:48:33;;;;;;;2.40;0.80;;;;;;;;;;6289139;22;20372;-88
2023/12/22 11:50:59;;;;;;;1.97;0.90;;;;;;;;;;6288947;22;20395;-88
2023/12/22 11:53:25;;;;;;;3.90;1.10;;;;;;;;;;6289697;22;20464;-89
2023/12/22 11:55:58;;;;;;;1.90;1.23;;;;;;;;;;6287885;22;20768;-89
2023/12/22 11:58:33;;;;;;;1.93;1.03;;;;;;;;;;6288035;22;20514;-88
2023/12/22 12:01:00;;;;;;;1.47;1.10;;;;;;;;;;6286976;22;20419;-89
2023/12/22 12:03:27;;;;;;;1.27;0.90;;;;;;;;;;6285328;22;20423;-89
2023/12/22 12:06:10;;;;;;;1.10;0.80;;;;;;;;;;6286399;22;20455;-88
2023/12/22 12:08:36;;;;;;;1.07;1.00;;;;;;;;;;6286588;22;20413;-89
2023/12/22 12:11:03;;;;;;;3.27;0.80;;;;;;;;;;6289203;22;20874;-89
2023/12/22 12:13:29;;;;;;;4.37;0.97;;;;;;;;;;6290001;22;20383;-89
2023/12/22 12:15:56;;;;;;;1.80;0.90;;;;;;;;;;6292196;22;20383;-90
2023/12/22 12:18:24;;;;;;;0.80;0.80;;;;;;;;;;6288450;22;20379;-90
2023/12/22 12:20:50;;;;;;;0.70;0.60;;;;;;;;;;6288269;22;20487;-90
2023/12/22 12:23:17;;;;;;;1.77;1.23;;;;;;;;;;6289597;22;20382;-89
2023/12/22 12:25:43;;;;;;;2.37;1.07;;;;;;;;;;6290137;22;20424;-89
2023/12/22 12:28:09;;;;;;;2.20;1.23;;;;;;;;;;6288747;22;20407;-90
2023/12/22 12:30:36;;;;;;;1.83;0.73;;;;;;;;;;6291624;22;20384;-89
2023/12/22 12:33:10;;;;;;;1.10;0.73;;;;;;;;;;6321221;22;20798;-89
2023/12/22 12:35:36;;;;;;;1.93;1.20;;;;;;;;;;6293123;22;20687;-90
2023/12/22 12:38:03;;;;;;;1.40;0.73;;;;;;;;;;6292796;22;20413;-88
2023/12/22 12:40:29;;;;;;;2.60;0.60;;;;;;;;;;6285682;22;20454;-89
2023/12/22 12:42:58;;;;;;;1.27;0.93;;;;;;;;;;6285455;22;20368;-89
2023/12/22 12:45:24;;;;;;;1.47;1.20;;;;;;;;;;6316854;22;20409;-89
2023/12/22 12:48:02;;;;;;;1.67;0.80;;;;;;;;;;6285743;22;20369;-87
2023/12/22 12:50:35;;;;;;;0.70;0.63;;;;;;;;;;6282158;22;20456;-86
2023/12/22 12:53:01;;;;;;;2.23;1.30;;;;;;;;;;6282146;22;20368;-86
2023/12/22 12:55:27;;;;;;;3.80;1.10;;;;;;;;;;6286721;22;20377;-85
2023/12/22 12:57:53;;;;;;;1.20;0.90;;;;;;;;;;6284377;22;20723;-85
2023/12/22 13:00:32;;;;;;;1.17;1.08;;;;;;;;;;6229026;22;1330995;-86
2023/12/22 13:03:04;;;;;;;0.97;0.80;;;;;;;;;;6283927;22;20157;-87
2023/12/22 13:05:30;;;;;;;1.33;0.73;;;;;;;;;;6287444;22;20380;-86
2023/12/22 13:08:08;;;;;;;1.13;0.80;;;;;;;;;;6286144;22;20376;-86
2023/12/22 13:10:34;;;;;;;1.23;1.20;;;;;;;;;;6292081;22;20383;-84
2023/12/22 13:13:01;;;;;;;0.67;0.60;;;;;;;;;;6291855;22;20869;-86
2023/12/22 13:15:27;;;;;;;0.90;0.60;;;;;;;;;;6295694;22;20367;-86
2023/12/22 13:17:53;;;;;;;0.70;0.50;;;;;;;;;;6316943;22;20367;-85
2023/12/22 13:20:19;;;;;;;1.13;0.70;;;;;;;;;;6292271;22;20490;-86
2023/12/22 13:22:46;;;;;;;0.90;0.90;;;;;;;;;;6316276;22;20397;-88
2023/12/22 13:25:12;;;;;;;2.20;0.60;;;;;;;;;;6290599;22;20375;-88
2023/12/22 13:27:48;;;;;;;4.33;0.70;;;;;;;;;;6290342;22;20379;-88
2023/12/22 13:30:34;;;;;;;0.80;0.80;;;;;;;;;;6320685;22;20378;-88
2023/12/22 13:33:00;;;;;;;0.80;0.70;;;;;;;;;;6315894;22;20481;-88
2023/12/22 13:35:26;;;;;;;0.70;0.67;;;;;;;;;;6293600;22;20375;-85
2023/12/22 13:37:52;;;;;;;0.70;0.60;;;;;;;;;;6290952;22;20447;-88
2023/12/22 13:40:18;;;;;;;1.00;0.67;;;;;;;;;;6291781;22;20426;-87
2023/12/22 13:42:44;;;;;;;1.00;0.60;;;;;;;;;;6290756;22;20376;-89
2023/12/22 13:45:13;;;;;;;0.90;0.50;;;;;;;;;;6290160;22;20778;-88
2023/12/22 13:47:46;;;;;;;0.60;0.50;;;;;;;;;;6292419;22;20444;-88
2023/12/22 13:50:18;;;;;;;0.60;0.50;;;;;;;;;;6291111;22;20474;-88
2023/12/22 13:52:44;;;;;;;0.70;0.50;;;;;;;;;;6291924;22;20414;-88
2023/12/22 13:55:11;;;;;;;0.73;0.63;;;;;;;;;;6293186;22;20481;-86
2023/12/22 13:57:37;;;;;;;1.60;1.03;;;;;;;;;;6317200;22;20859;-86
2023/12/22 14:00:23;;;;;;;0.60;0.57;;;;;;;;;;6290337;22;20423;-80
2023/12/22 14:02:49;;;;;;;0.70;0.60;;;;;;;;;;6319957;22;20457;-85
2023/12/22 14:05:16;;;;;;;0.80;0.80;;;;;;;;;;6288352;22;20454;-85
2023/12/22 14:07:46;;;;;;;0.70;0.60;;;;;;;;;;6291229;22;20363;-87
2023/12/22 14:10:12;;;;;;;1.70;0.80;;;;;;;;;;6313483;22;20368;-85
2023/12/22 14:12:38;;;;;;;0.60;0.50;;;;;;;;;;6289484;22;20415;-86
2023/12/22 14:15:06;;;;;;;0.87;0.80;;;;;;;;;;6291503;22;20383;-87
2023/12/22 14:17:32;;;;;;;0.60;0.60;;;;;;;;;;6318354;22;20370;-87
2023/12/22 14:19:59;;;;;;;0.70;0.57;;;;;;;;;;6288846;22;20427;-87
2023/12/22 14:22:26;;;;;;;1.03;0.93;;;;;;;;;;6289561;22;20383;-85
2023/12/22 14:24:52;;;;;;;0.70;0.70;;;;;;;;;;6285732;22;20458;-87
2023/12/22 14:27:18;;;;;;;1.70;1.60;;;;;;;;;;6290736;22;20372;-86
2023/12/22 14:29:45;;;;;;;1.70;1.60;;;;;;;;;;6288039;22;20383;-86
2023/12/22 14:32:14;;;;;;;0.77;0.70;;;;;;;;;;6292799;22;20383;-85
2023/12/22 14:34:41;;;;;;;0.60;0.50;;;;;;;;;;6290876;22;20390;-85
2023/12/22 14:37:07;;;;;;;0.70;0.70;;;;;;;;;;6289948;22;20407;-87
2023/12/22 14:39:36;;;;;;;0.83;0.67;;;;;;;;;;6289829;22;20431;-85
2023/12/22 14:42:05;;;;;;;0.60;0.60;;;;;;;;;;6287863;22;20383;-86